Terminal Aerodrome Forecast
Issued by NWS Billings, MT

Current Version | Previous Version | Text Only | Print | Product List | Glossary On
Versions: 1 2 3 4 5 6 7 8 9 10 11 12 13 14 15 16 17 18 19 20 21 22 23 24 25
000
FTUS45 KBYZ 102320
TAFBIL
TAF
KBIL 102320Z 1100/1124 VRB05KT P6SM FEW090
     FM111300 05008KT P6SM FEW100
     FM112000 08010KT P6SM VCSH SCT070 SCT120=

USA.gov is the U.S. government's official web portal to all federal, state and local government web resources and services.